sensor_id;sensor_type;location;lat;lon;timestamp;temperature;humidity
9544;DHT22;30418;51.45933468;7.33152330;2022-11-14T00:02:38;11.20;54.80
9544;DHT22;30418;51.45933468;7.33152330;2022-11-14T00:05:26;11.20;54.80
9544;DHT22;30418;51.45933468;7.33152330;2022-11-14T00:08:15;11.20;54.70
9544;DHT22;30418;51.45933468;7.33152330;2022-11-14T00:11:03;11.10;54.60
9544;DHT22;30418;51.45933468;7.33152330;2022-11-14T00:13:51;11.10;54.60
9544;DHT22;30418;51.45933468;7.33152330;2022-11-14T00:16:39;11.10;54.70
9544;DHT22;30418;51.45933468;7.33152330;2022-11-14T00:19:27;11.10;54.70
9544;DHT22;30418;51.45933468;7.33152330;2022-11-14T00:22:14;11.10;54.70
9544;DHT22;30418;51.45933468;7.33152330;2022-11-14T00:25:01;11.00;54.60
9544;DHT22;30418;51.45933468;7.33152330;2022-11-14T00:27:48;11.00;54.70
9544;DHT22;30418;51.45933468;7.33152330;2022-11-14T00:30:37;11.00;54.70
9544;DHT22;30418;51.45933468;7.33152330;2022-11-14T00:33:24;11.00;54.70
9544;DHT22;30418;51.45933468;7.33152330;2022-11-14T00:36:11;10.90;54.60
9544;DHT22;30418;51.45933468;7.33152330;2022-11-14T00:38:58;10.90;54.60
9544;DHT22;30418;51.45933468;7.33152330;2022-11-14T00:41:45;10.90;54.70
9544;DHT22;30418;51.45933468;7.33152330;2022-11-14T00:44:33;10.90;54.80
9544;DHT22;30418;51.45933468;7.33152330;2022-11-14T00:47:22;10.90;54.80
9544;DHT22;30418;51.45933468;7.33152330;2022-11-14T00:50:09;10.80;54.70
9544;DHT22;30418;51.45933468;7.33152330;2022-11-14T00:52:56;10.80;54.80
9544;DHT22;30418;51.45933468;7.33152330;2022-11-14T00:55:44;10.80;54.80
9544;DHT22;30418;51.45933468;7.33152330;2022-11-14T00:58:31;10.80;54.80
9544;DHT22;30418;51.45933468;7.33152330;2022-11-14T01:01:18;10.80;54.70
9544;DHT22;30418;51.45933468;7.33152330;2022-11-14T01:04:07;10.80;54.70
9544;DHT22;30418;51.45933468;7.33152330;2022-11-14T01:06:54;10.80;54.80
9544;DHT22;30418;51.45933468;7.33152330;2022-11-14T01:09:42;10.80;54.80
9544;DHT22;30418;51.45933468;7.33152330;2022-11-14T01:12:29;10.70;54.70
9544;DHT22;30418;51.45933468;7.33152330;2022-11-14T01:15:16;10.70;54.70
9544;DHT22;30418;51.45933468;7.33152330;2022-11-14T01:18:04;10.70;54.70
9544;DHT22;30418;51.45933468;7.33152330;2022-11-14T01:20:53;10.70;54.60
9544;DHT22;30418;51.45933468;7.33152330;2022-11-14T01:23:40;10.60;54.60
9544;DHT22;30418;51.45933468;7.33152330;2022-11-14T01:26:27;10.60;54.60
9544;DHT22;30418;51.45933468;7.33152330;2022-11-14T01:29:14;10.60;54.60
9544;DHT22;30418;51.45933468;7.33152330;2022-11-14T01:32:01;10.60;54.70
9544;DHT22;30418;51.45933468;7.33152330;2022-11-14T01:34:48;10.50;54.60
9544;DHT22;30418;51.45933468;7.33152330;2022-11-14T01:37:37;10.50;54.70
9544;DHT22;30418;51.45933468;7.33152330;2022-11-14T01:40:24;10.50;54.60
9544;DHT22;30418;51.45933468;7.33152330;2022-11-14T01:43:37;10.50;54.70
9544;DHT22;30418;51.45933468;7.33152330;2022-11-14T01:46:26;10.50;54.70
9544;DHT22;30418;51.45933468;7.33152330;2022-11-14T01:49:19;10.40;54.60
9544;DHT22;30418;51.45933468;7.33152330;2022-11-14T01:52:09;10.40;55.20
9544;DHT22;30418;51.45933468;7.33152330;2022-11-14T01:55:02;10.40;54.60
9544;DHT22;30418;51.45933468;7.33152330;2022-11-14T01:57:54;10.40;54.60
9544;DHT22;30418;51.45933468;7.33152330;2022-11-14T02:00:43;10.30;54.50
9544;DHT22;30418;51.45933468;7.33152330;2022-11-14T02:03:33;10.30;54.50
9544;DHT22;30418;51.45933468;7.33152330;2022-11-14T02:06:23;10.30;54.50
9544;DHT22;30418;51.45933468;7.33152330;2022-11-14T02:09:14;10.20;54.40
9544;DHT22;30418;51.45933468;7.33152330;2022-11-14T02:12:05;10.20;54.70
9544;DHT22;30418;51.45933468;7.33152330;2022-11-14T02:14:55;10.20;54.40
9544;DHT22;30418;51.45933468;7.33152330;2022-11-14T02:17:43;10.20;54.40
9544;DHT22;30418;51.45933468;7.33152330;2022-11-14T02:20:35;10.10;54.40
9544;DHT22;30418;51.45933468;7.33152330;2022-11-14T02:23:29;10.10;54.40
9544;DHT22;30418;51.45933468;7.33152330;2022-11-14T02:26:18;10.10;54.40
9544;DHT22;30418;51.45933468;7.33152330;2022-11-14T02:29:08;10.00;54.30
9544;DHT22;30418;51.45933468;7.33152330;2022-11-14T02:31:56;10.00;54.30
9544;DHT22;30418;51.45933468;7.33152330;2022-11-14T02:34:43;10.00;54.40
9544;DHT22;30418;51.45933468;7.33152330;2022-11-14T02:37:32;10.00;54.40
9544;DHT22;30418;51.45933468;7.33152330;2022-11-14T02:40:19;10.00;54.50
9544;DHT22;30418;51.45933468;7.33152330;2022-11-14T02:43:06;9.90;55.30
9544;DHT22;30418;51.45933468;7.33152330;2022-11-14T02:45:54;9.90;55.40
9544;DHT22;30418;51.45933468;7.33152330;2022-11-14T02:48:48;9.90;55.40
9544;DHT22;30418;51.45933468;7.33152330;2022-11-14T02:51:35;9.90;55.40
9544;DHT22;30418;51.45933468;7.33152330;2022-11-14T02:54:24;9.90;55.40
9544;DHT22;30418;51.45933468;7.33152330;2022-11-14T02:57:11;9.90;55.50
9544;DHT22;30418;51.45933468;7.33152330;2022-11-14T02:59:58;9.80;55.40
9544;DHT22;30418;51.45933468;7.33152330;2022-11-14T03:02:46;9.80;55.50
9544;DHT22;30418;51.45933468;7.33152330;2022-11-14T03:05:33;9.80;55.50
9544;DHT22;30418;51.45933468;7.33152330;2022-11-14T03:08:20;9.80;55.50
9544;DHT22;30418;51.45933468;7.33152330;2022-11-14T03:11:09;9.80;55.50
9544;DHT22;30418;51.45933468;7.33152330;2022-11-14T03:13:58;9.80;55.60
9544;DHT22;30418;51.45933468;7.33152330;2022-11-14T03:16:45;9.80;55.70
9544;DHT22;30418;51.45933468;7.33152330;2022-11-14T03:19:33;9.70;55.60
9544;DHT22;30418;51.45933468;7.33152330;2022-11-14T03:22:20;9.70;55.70
9544;DHT22;30418;51.45933468;7.33152330;2022-11-14T03:25:07;9.70;55.70
9544;DHT22;30418;51.45933468;7.33152330;2022-11-14T03:27:56;9.70;55.80
9544;DHT22;30418;51.45933468;7.33152330;2022-11-14T03:30:45;9.70;55.80
9544;DHT22;30418;51.45933468;7.33152330;2022-11-14T03:33:32;9.70;55.80
9544;DHT22;30418;51.45933468;7.33152330;2022-11-14T03:36:20;9.70;55.80
9544;DHT22;30418;51.45933468;7.33152330;2022-11-14T03:39:07;9.70;55.70
9544;DHT22;30418;51.45933468;7.33152330;2022-11-14T03:41:54;9.60;55.70
9544;DHT22;30418;51.45933468;7.33152330;2022-11-14T03:44:43;9.60;55.70
9544;DHT22;30418;51.45933468;7.33152330;2022-11-14T03:47:30;9.60;55.70
9544;DHT22;30418;51.45933468;7.33152330;2022-11-14T03:50:17;9.60;55.80
9544;DHT22;30418;51.45933468;7.33152330;2022-11-14T03:53:05;9.60;55.90
9544;DHT22;30418;51.45933468;7.33152330;2022-11-14T03:55:52;9.50;55.90
9544;DHT22;30418;51.45933468;7.33152330;2022-11-14T03:58:39;9.50;55.90
9544;DHT22;30418;51.45933468;7.33152330;2022-11-14T04:01:28;9.50;56.00
9544;DHT22;30418;51.45933468;7.33152330;2022-11-14T04:04:15;9.50;56.00
9544;DHT22;30418;51.45933468;7.33152330;2022-11-14T04:07:02;9.50;56.00
9544;DHT22;30418;51.45933468;7.33152330;2022-11-14T04:09:51;9.50;56.00
9544;DHT22;30418;51.45933468;7.33152330;2022-11-14T04:12:38;9.50;55.90
9544;DHT22;30418;51.45933468;7.33152330;2022-11-14T04:15:25;9.50;56.00
9544;DHT22;30418;51.45933468;7.33152330;2022-11-14T04:18:16;9.50;55.90
9544;DHT22;30418;51.45933468;7.33152330;2022-11-14T04:21:04;9.50;56.00
9544;DHT22;30418;51.45933468;7.33152330;2022-11-14T04:23:51;9.50;56.10
9544;DHT22;30418;51.45933468;7.33152330;2022-11-14T04:26:38;9.50;56.10
9544;DHT22;30418;51.45933468;7.33152330;2022-11-14T04:29:25;9.50;56.10
9544;DHT22;30418;51.45933468;7.33152330;2022-11-14T04:32:12;9.50;56.00
9544;DHT22;30418;51.45933468;7.33152330;2022-11-14T04:35:01;9.50;56.00
9544;DHT22;30418;51.45933468;7.33152330;2022-11-14T04:37:48;9.40;56.00
9544;DHT22;30418;51.45933468;7.33152330;2022-11-14T04:40:35;9.50;56.10
9544;DHT22;30418;51.45933468;7.33152330;2022-11-14T04:43:22;9.50;56.10
9544;DHT22;30418;51.45933468;7.33152330;2022-11-14T04:46:10;9.50;56.10
9544;DHT22;30418;51.45933468;7.33152330;2022-11-14T04:48:57;9.40;56.10
9544;DHT22;30418;51.45933468;7.33152330;2022-11-14T04:51:45;9.40;56.10
9544;DHT22;30418;51.45933468;7.33152330;2022-11-14T04:54:32;9.40;56.00
9544;DHT22;30418;51.45933468;7.33152330;2022-11-14T04:57:19;9.40;56.10
9544;DHT22;30418;51.45933468;7.33152330;2022-11-14T05:00:08;9.40;56.10
9544;DHT22;30418;51.45933468;7.33152330;2022-11-14T05:02:58;9.40;56.10
9544;DHT22;30418;51.45933468;7.33152330;2022-11-14T05:05:45;9.40;56.10
9544;DHT22;30418;51.45933468;7.33152330;2022-11-14T05:08:34;9.40;56.10
9544;DHT22;30418;51.45933468;7.33152330;2022-11-14T05:11:22;9.30;56.10
9544;DHT22;30418;51.45933468;7.33152330;2022-11-14T05:14:14;9.30;56.10
9544;DHT22;30418;51.45933468;7.33152330;2022-11-14T05:17:01;9.30;56.20
9544;DHT22;30418;51.45933468;7.33152330;2022-11-14T05:19:48;9.30;56.10
9544;DHT22;30418;51.45933468;7.33152330;2022-11-14T05:22:35;9.30;56.20
9544;DHT22;30418;51.45933468;7.33152330;2022-11-14T05:25:24;9.30;56.20
9544;DHT22;30418;51.45933468;7.33152330;2022-11-14T05:28:11;9.30;56.20
9544;DHT22;30418;51.45933468;7.33152330;2022-11-14T05:31:02;9.30;56.10
9544;DHT22;30418;51.45933468;7.33152330;2022-11-14T05:33:49;9.30;56.10
9544;DHT22;30418;51.45933468;7.33152330;2022-11-14T05:36:37;9.30;56.10
9544;DHT22;30418;51.45933468;7.33152330;2022-11-14T05:39:24;9.30;56.20
9544;DHT22;30418;51.45933468;7.33152330;2022-11-14T05:42:12;9.20;56.10
9544;DHT22;30418;51.45933468;7.33152330;2022-11-14T05:45:00;9.20;56.10
9544;DHT22;30418;51.45933468;7.33152330;2022-11-14T05:47:47;9.20;56.20
9544;DHT22;30418;51.45933468;7.33152330;2022-11-14T05:50:34;9.20;56.20
9544;DHT22;30418;51.45933468;7.33152330;2022-11-14T05:53:21;9.20;56.20
9544;DHT22;30418;51.45933468;7.33152330;2022-11-14T05:56:10;9.20;56.20
9544;DHT22;30418;51.45933468;7.33152330;2022-11-14T05:58:59;9.20;56.20
9544;DHT22;30418;51.45933468;7.33152330;2022-11-14T06:01:47;9.20;56.20
9544;DHT22;30418;51.45933468;7.33152330;2022-11-14T06:04:34;9.10;56.20
9544;DHT22;30418;51.45933468;7.33152330;2022-11-14T06:07:22;9.10;56.30
9544;DHT22;30418;51.45933468;7.33152330;2022-11-14T06:10:09;9.10;56.40
9544;DHT22;30418;51.45933468;7.33152330;2022-11-14T06:12:56;9.10;56.50
9544;DHT22;30418;51.45933468;7.33152330;2022-11-14T06:15:44;9.10;56.60
9544;DHT22;30418;51.45933468;7.33152330;2022-11-14T06:18:33;9.10;56.70
9544;DHT22;30418;51.45933468;7.33152330;2022-11-14T06:21:21;9.10;56.70
9544;DHT22;30418;51.45933468;7.33152330;2022-11-14T06:24:10;9.10;56.80
9544;DHT22;30418;51.45933468;7.33152330;2022-11-14T06:26:57;9.10;56.80
9544;DHT22;30418;51.45933468;7.33152330;2022-11-14T06:29:44;9.10;56.80
9544;DHT22;30418;51.45933468;7.33152330;2022-11-14T06:32:32;9.10;56.80
9544;DHT22;30418;51.45933468;7.33152330;2022-11-14T06:35:20;9.10;56.80
9544;DHT22;30418;51.45933468;7.33152330;2022-11-14T06:38:07;9.20;56.90
9544;DHT22;30418;51.45933468;7.33152330;2022-11-14T06:41:01;9.20;57.00
9544;DHT22;30418;51.45933468;7.33152330;2022-11-14T06:43:50;9.10;56.90
9544;DHT22;30418;51.45933468;7.33152330;2022-11-14T06:46:39;9.20;56.90
9544;DHT22;30418;51.45933468;7.33152330;2022-11-14T06:49:28;9.20;56.90
9544;DHT22;30418;51.45933468;7.33152330;2022-11-14T06:52:19;9.20;57.00
9544;DHT22;30418;51.45933468;7.33152330;2022-11-14T06:55:07;9.20;56.90
9544;DHT22;30418;51.45933468;7.33152330;2022-11-14T06:57:54;9.20;57.00
9544;DHT22;30418;51.45933468;7.33152330;2022-11-14T07:00:42;9.20;57.00
9544;DHT22;30418;51.45933468;7.33152330;2022-11-14T07:03:29;9.20;57.00
9544;DHT22;30418;51.45933468;7.33152330;2022-11-14T07:06:20;9.20;56.90
9544;DHT22;30418;51.45933468;7.33152330;2022-11-14T07:09:09;9.20;57.50
9544;DHT22;30418;51.45933468;7.33152330;2022-11-14T07:11:56;9.20;56.90
9544;DHT22;30418;51.45933468;7.33152330;2022-11-14T07:14:43;9.20;56.90
9544;DHT22;30418;51.45933468;7.33152330;2022-11-14T07:17:33;9.20;57.00
9544;DHT22;30418;51.45933468;7.33152330;2022-11-14T07:20:21;9.20;57.00
9544;DHT22;30418;51.45933468;7.33152330;2022-11-14T07:23:09;9.20;57.00
9544;DHT22;30418;51.45933468;7.33152330;2022-11-14T07:25:59;9.20;57.00
9544;DHT22;30418;51.45933468;7.33152330;2022-11-14T07:28:47;9.20;57.20
9544;DHT22;30418;51.45933468;7.33152330;2022-11-14T07:31:39;9.20;57.20
9544;DHT22;30418;51.45933468;7.33152330;2022-11-14T07:34:27;9.20;57.20
9544;DHT22;30418;51.45933468;7.33152330;2022-11-14T07:37:14;9.20;57.20
9544;DHT22;30418;51.45933468;7.33152330;2022-11-14T07:40:03;9.20;57.30
9544;DHT22;30418;51.45933468;7.33152330;2022-11-14T07:42:50;9.20;57.40
9544;DHT22;30418;51.45933468;7.33152330;2022-11-14T07:45:37;9.30;57.40
9544;DHT22;30418;51.45933468;7.33152330;2022-11-14T07:48:25;9.30;57.50
9544;DHT22;30418;51.45933468;7.33152330;2022-11-14T07:51:14;9.30;57.50
9544;DHT22;30418;51.45933468;7.33152330;2022-11-14T07:54:02;9.30;57.60
9544;DHT22;30418;51.45933468;7.33152330;2022-11-14T07:56:51;9.20;57.50
9544;DHT22;30418;51.45933468;7.33152330;2022-11-14T07:59:38;9.30;57.60
9544;DHT22;30418;51.45933468;7.33152330;2022-11-14T08:02:25;9.30;57.70
9544;DHT22;30418;51.45933468;7.33152330;2022-11-14T08:05:12;9.30;57.70
9544;DHT22;30418;51.45933468;7.33152330;2022-11-14T08:07:59;9.30;57.90
9544;DHT22;30418;51.45933468;7.33152330;2022-11-14T08:10:47;9.30;57.70
9544;DHT22;30418;51.45933468;7.33152330;2022-11-14T08:13:35;9.30;57.70
9544;DHT22;30418;51.45933468;7.33152330;2022-11-14T08:16:22;9.40;57.90
9544;DHT22;30418;51.45933468;7.33152330;2022-11-14T08:19:10;9.30;57.80
9544;DHT22;30418;51.45933468;7.33152330;2022-11-14T08:21:57;9.40;57.90
9544;DHT22;30418;51.45933468;7.33152330;2022-11-14T08:24:44;9.40;57.90
9544;DHT22;30418;51.45933468;7.33152330;2022-11-14T08:27:32;9.40;57.90
9544;DHT22;30418;51.45933468;7.33152330;2022-11-14T08:30:20;9.40;58.00
9544;DHT22;30418;51.45933468;7.33152330;2022-11-14T08:33:07;9.40;58.00
9544;DHT22;30418;51.45933468;7.33152330;2022-11-14T08:35:55;9.40;58.10
9544;DHT22;30418;51.45933468;7.33152330;2022-11-14T08:38:42;9.50;58.20
9544;DHT22;30418;51.45933468;7.33152330;2022-11-14T08:41:29;9.50;58.20
9544;DHT22;30418;51.45933468;7.33152330;2022-11-14T08:44:16;9.50;58.20
9544;DHT22;30418;51.45933468;7.33152330;2022-11-14T08:47:05;9.60;58.40
9544;DHT22;30418;51.45933468;7.33152330;2022-11-14T08:49:52;9.60;58.40
9544;DHT22;30418;51.45933468;7.33152330;2022-11-14T08:52:39;9.60;58.40
9544;DHT22;30418;51.45933468;7.33152330;2022-11-14T08:55:26;9.60;58.40
9544;DHT22;30418;51.45933468;7.33152330;2022-11-14T08:58:14;9.70;58.50
9544;DHT22;30418;51.45933468;7.33152330;2022-11-14T09:01:02;9.70;58.60
9544;DHT22;30418;51.45933468;7.33152330;2022-11-14T09:03:51;9.70;58.60
9544;DHT22;30418;51.45933468;7.33152330;2022-11-14T09:06:44;9.80;58.70
9544;DHT22;30418;51.45933468;7.33152330;2022-11-14T09:09:31;9.80;58.70
9544;DHT22;30418;51.45933468;7.33152330;2022-11-14T09:12:19;9.90;58.80
9544;DHT22;30418;51.45933468;7.33152330;2022-11-14T09:15:07;9.90;58.80
9544;DHT22;30418;51.45933468;7.33152330;2022-11-14T09:17:55;9.90;58.90
9544;DHT22;30418;51.45933468;7.33152330;2022-11-14T09:20:44;9.90;58.90
9544;DHT22;30418;51.45933468;7.33152330;2022-11-14T09:23:32;10.00;58.20
9544;DHT22;30418;51.45933468;7.33152330;2022-11-14T09:26:19;10.00;58.20
9544;DHT22;30418;51.45933468;7.33152330;2022-11-14T09:29:06;10.10;58.30
9544;DHT22;30418;51.45933468;7.33152330;2022-11-14T09:31:54;10.10;58.30
9544;DHT22;30418;51.45933468;7.33152330;2022-11-14T09:34:41;10.10;58.30
9544;DHT22;30418;51.45933468;7.33152330;2022-11-14T09:37:31;10.20;58.40
9544;DHT22;30418;51.45933468;7.33152330;2022-11-14T09:40:18;10.20;58.40
9544;DHT22;30418;51.45933468;7.33152330;2022-11-14T09:43:16;10.30;58.50
9544;DHT22;30418;51.45933468;7.33152330;2022-11-14T09:46:19;10.30;58.50
9544;DHT22;30418;51.45933468;7.33152330;2022-11-14T09:49:22;10.30;58.40
9544;DHT22;30418;51.45933468;7.33152330;2022-11-14T09:52:18;10.40;58.60
9544;DHT22;30418;51.45933468;7.33152330;2022-11-14T09:55:17;10.50;58.60
9544;DHT22;30418;51.45933468;7.33152330;2022-11-14T09:58:12;10.50;58.60
9544;DHT22;30418;51.45933468;7.33152330;2022-11-14T10:01:05;10.50;58.60
9544;DHT22;30418;51.45933468;7.33152330;2022-11-14T10:04:01;10.60;58.70
9544;DHT22;30418;51.45933468;7.33152330;2022-11-14T10:07:00;10.60;58.70
9544;DHT22;30418;51.45933468;7.33152330;2022-11-14T10:10:01;10.60;58.60
9544;DHT22;30418;51.45933468;7.33152330;2022-11-14T10:12:59;10.60;58.60
9544;DHT22;30418;51.45933468;7.33152330;2022-11-14T10:15:58;10.70;58.70
9544;DHT22;30418;51.45933468;7.33152330;2022-11-14T10:19:06;10.70;58.60
9544;DHT22;30418;51.45933468;7.33152330;2022-11-14T10:22:16;10.70;58.80
9544;DHT22;30418;51.45933468;7.33152330;2022-11-14T10:25:23;10.70;58.80
9544;DHT22;30418;51.45933468;7.33152330;2022-11-14T10:28:32;10.70;58.70
9544;DHT22;30418;51.45933468;7.33152330;2022-11-14T10:31:35;10.80;58.80
9544;DHT22;30418;51.45933468;7.33152330;2022-11-14T10:34:30;10.80;58.70
9544;DHT22;30418;51.45933468;7.33152330;2022-11-14T10:37:25;10.80;59.30
9544;DHT22;30418;51.45933468;7.33152330;2022-11-14T10:40:18;10.80;58.70
9544;DHT22;30418;51.45933468;7.33152330;2022-11-14T10:43:19;10.90;58.80
9544;DHT22;30418;51.45933468;7.33152330;2022-11-14T10:46:14;10.90;58.80
9544;DHT22;30418;51.45933468;7.33152330;2022-11-14T10:49:14;10.90;58.80
9544;DHT22;30418;51.45933468;7.33152330;2022-11-14T10:52:06;10.90;58.80
9544;DHT22;30418;51.45933468;7.33152330;2022-11-14T10:54:59;11.00;58.80
9544;DHT22;30418;51.45933468;7.33152330;2022-11-14T10:57:50;11.00;58.80
9544;DHT22;30418;51.45933468;7.33152330;2022-11-14T11:00:39;11.00;58.80
9544;DHT22;30418;51.45933468;7.33152330;2022-11-14T11:03:40;11.00;58.80
9544;DHT22;30418;51.45933468;7.33152330;2022-11-14T11:06:28;11.00;58.90
9544;DHT22;30418;51.45933468;7.33152330;2022-11-14T11:09:18;11.00;58.80
9544;DHT22;30418;51.45933468;7.33152330;2022-11-14T11:12:41;11.00;59.50
9544;DHT22;30418;51.45933468;7.33152330;2022-11-14T11:15:31;11.00;59.00
9544;DHT22;30418;51.45933468;7.33152330;2022-11-14T11:18:29;11.10;59.00
9544;DHT22;30418;51.45933468;7.33152330;2022-11-14T11:21:18;11.10;59.10
9544;DHT22;30418;51.45933468;7.33152330;2022-11-14T11:24:08;11.10;59.10
9544;DHT22;30418;51.45933468;7.33152330;2022-11-14T11:27:12;11.20;59.20
9544;DHT22;30418;51.45933468;7.33152330;2022-11-14T11:30:18;11.20;59.20
9544;DHT22;30418;51.45933468;7.33152330;2022-11-14T11:33:23;11.20;59.20
9544;DHT22;30418;51.45933468;7.33152330;2022-11-14T11:36:14;11.30;59.30
9544;DHT22;30418;51.45933468;7.33152330;2022-11-14T11:39:03;11.30;59.20
9544;DHT22;30418;51.45933468;7.33152330;2022-11-14T11:41:51;11.40;59.30
9544;DHT22;30418;51.45933468;7.33152330;2022-11-14T11:44:59;11.30;59.20
9544;DHT22;30418;51.45933468;7.33152330;2022-11-14T11:47:53;11.40;59.30
9544;DHT22;30418;51.45933468;7.33152330;2022-11-14T11:50:45;11.50;59.30
9544;DHT22;30418;51.45933468;7.33152330;2022-11-14T11:53:35;11.40;59.30
9544;DHT22;30418;51.45933468;7.33152330;2022-11-14T11:56:26;11.50;59.40
9544;DHT22;30418;51.45933468;7.33152330;2022-11-14T11:59:23;11.50;59.40
9544;DHT22;30418;51.45933468;7.33152330;2022-11-14T12:02:21;11.50;59.40
9544;DHT22;30418;51.45933468;7.33152330;2022-11-14T12:05:12;11.60;59.40
9544;DHT22;30418;51.45933468;7.33152330;2022-11-14T12:08:04;11.50;59.30
9544;DHT22;30418;51.45933468;7.33152330;2022-11-14T12:10:55;11.60;59.40
9544;DHT22;30418;51.45933468;7.33152330;2022-11-14T12:14:08;11.60;59.50
9544;DHT22;30418;51.45933468;7.33152330;2022-11-14T12:21:01;11.60;59.50
9544;DHT22;30418;51.45933468;7.33152330;2022-11-14T12:27:53;11.60;59.70
9544;DHT22;30418;51.45933468;7.33152330;2022-11-14T12:30:52;11.70;59.70
9544;DHT22;30418;51.45933468;7.33152330;2022-11-14T12:33:45;11.70;59.70
9544;DHT22;30418;51.45933468;7.33152330;2022-11-14T12:36:39;11.70;59.70
9544;DHT22;30418;51.45933468;7.33152330;2022-11-14T12:39:30;11.70;59.70
9544;DHT22;30418;51.45933468;7.33152330;2022-11-14T12:42:20;11.80;59.70
9544;DHT22;30418;51.45933468;7.33152330;2022-11-14T12:48:46;11.80;60.00
9544;DHT22;30418;51.45933468;7.33152330;2022-11-14T12:51:48;11.90;59.90
9544;DHT22;30418;51.45933468;7.33152330;2022-11-14T12:54:44;11.90;60.00
9544;DHT22;30418;51.45933468;7.33152330;2022-11-14T12:57:38;11.90;59.90
9544;DHT22;30418;51.45933468;7.33152330;2022-11-14T13:00:36;11.90;59.90
9544;DHT22;30418;51.45933468;7.33152330;2022-11-14T13:03:37;11.90;59.80
9544;DHT22;30418;51.45933468;7.33152330;2022-11-14T13:06:40;11.90;59.80
9544;DHT22;30418;51.45933468;7.33152330;2022-11-14T13:09:34;12.00;59.90
9544;DHT22;30418;51.45933468;7.33152330;2022-11-14T13:12:32;12.00;59.90
9544;DHT22;30418;51.45933468;7.33152330;2022-11-14T13:15:47;12.00;59.90
9544;DHT22;30418;51.45933468;7.33152330;2022-11-14T13:18:58;12.00;60.00
9544;DHT22;30418;51.45933468;7.33152330;2022-11-14T13:22:35;11.90;59.90
9544;DHT22;30418;51.45933468;7.33152330;2022-11-14T13:25:25;12.00;60.10
9544;DHT22;30418;51.45933468;7.33152330;2022-11-14T13:28:44;12.00;60.00
9544;DHT22;30418;51.45933468;7.33152330;2022-11-14T13:31:47;12.00;60.20
9544;DHT22;30418;51.45933468;7.33152330;2022-11-14T13:34:41;12.00;60.20
9544;DHT22;30418;51.45933468;7.33152330;2022-11-14T13:37:50;12.00;60.10
9544;DHT22;30418;51.45933468;7.33152330;2022-11-14T13:40:49;12.00;60.40
9544;DHT22;30418;51.45933468;7.33152330;2022-11-14T13:43:52;12.00;60.30
9544;DHT22;30418;51.45933468;7.33152330;2022-11-14T13:46:58;12.00;60.40
9544;DHT22;30418;51.45933468;7.33152330;2022-11-14T13:50:03;12.00;60.50
9544;DHT22;30418;51.45933468;7.33152330;2022-11-14T13:52:51;12.00;60.60
9544;DHT22;30418;51.45933468;7.33152330;2022-11-14T13:55:55;12.00;60.50
9544;DHT22;30418;51.45933468;7.33152330;2022-11-14T13:58:56;12.10;60.80
9544;DHT22;30418;51.45933468;7.33152330;2022-11-14T14:02:06;12.10;60.70
9544;DHT22;30418;51.45933468;7.33152330;2022-11-14T14:05:20;12.00;60.60
9544;DHT22;30418;51.45933468;7.33152330;2022-11-14T14:08:22;12.10;60.60
9544;DHT22;30418;51.45933468;7.33152330;2022-11-14T14:11:31;12.10;60.60
9544;DHT22;30418;51.45933468;7.33152330;2022-11-14T14:14:52;12.10;60.60
9544;DHT22;30418;51.45933468;7.33152330;2022-11-14T14:17:52;12.10;60.60
9544;DHT22;30418;51.45933468;7.33152330;2022-11-14T14:20:49;12.10;60.50
9544;DHT22;30418;51.45933468;7.33152330;2022-11-14T14:23:41;12.20;60.50
9544;DHT22;30418;51.45933468;7.33152330;2022-11-14T14:26:41;12.20;60.50
9544;DHT22;30418;51.45933468;7.33152330;2022-11-14T14:29:46;12.20;60.50
9544;DHT22;30418;51.45933468;7.33152330;2022-11-14T14:32:38;12.20;60.40
9544;DHT22;30418;51.45933468;7.33152330;2022-11-14T14:35:28;12.20;60.20
9544;DHT22;30418;51.45933468;7.33152330;2022-11-14T14:38:26;12.20;60.40
9544;DHT22;30418;51.45933468;7.33152330;2022-11-14T14:41:17;12.20;60.40
9544;DHT22;30418;51.45933468;7.33152330;2022-11-14T14:44:10;12.20;60.40
9544;DHT22;30418;51.45933468;7.33152330;2022-11-14T14:47:14;12.20;60.40
9544;DHT22;30418;51.45933468;7.33152330;2022-11-14T14:50:05;12.20;60.30
9544;DHT22;30418;51.45933468;7.33152330;2022-11-14T14:53:01;12.20;60.20
9544;DHT22;30418;51.45933468;7.33152330;2022-11-14T14:55:55;12.20;60.90
9544;DHT22;30418;51.45933468;7.33152330;2022-11-14T14:58:43;12.20;60.20
9544;DHT22;30418;51.45933468;7.33152330;2022-11-14T15:01:31;12.20;60.10
9544;DHT22;30418;51.45933468;7.33152330;2022-11-14T15:04:21;12.20;60.20
9544;DHT22;30418;51.45933468;7.33152330;2022-11-14T15:07:19;12.20;60.10
9544;DHT22;30418;51.45933468;7.33152330;2022-11-14T15:10:20;12.10;60.20
9544;DHT22;30418;51.45933468;7.33152330;2022-11-14T15:13:14;12.10;60.20
9544;DHT22;30418;51.45933468;7.33152330;2022-11-14T15:16:02;12.20;60.20
9544;DHT22;30418;51.45933468;7.33152330;2022-11-14T15:18:51;12.10;60.00
9544;DHT22;30418;51.45933468;7.33152330;2022-11-14T15:21:39;12.10;60.00
9544;DHT22;30418;51.45933468;7.33152330;2022-11-14T15:24:27;12.10;60.00
9544;DHT22;30418;51.45933468;7.33152330;2022-11-14T15:27:17;12.10;60.00
9544;DHT22;30418;51.45933468;7.33152330;2022-11-14T15:30:20;12.10;60.00
9544;DHT22;30418;51.45933468;7.33152330;2022-11-14T15:33:26;12.10;60.10
9544;DHT22;30418;51.45933468;7.33152330;2022-11-14T15:36:15;12.00;60.00
9544;DHT22;30418;51.45933468;7.33152330;2022-11-14T15:39:04;12.00;59.90
9544;DHT22;30418;51.45933468;7.33152330;2022-11-14T15:42:12;12.10;60.10
9544;DHT22;30418;51.45933468;7.33152330;2022-11-14T15:45:00;12.00;60.00
9544;DHT22;30418;51.45933468;7.33152330;2022-11-14T15:48:12;12.00;60.00
9544;DHT22;30418;51.45933468;7.33152330;2022-11-14T15:51:00;12.00;60.10
9544;DHT22;30418;51.45933468;7.33152330;2022-11-14T15:53:48;12.00;60.00
9544;DHT22;30418;51.45933468;7.33152330;2022-11-14T15:56:37;12.00;60.10
9544;DHT22;30418;51.45933468;7.33152330;2022-11-14T15:59:26;12.00;60.10
9544;DHT22;30418;51.45933468;7.33152330;2022-11-14T16:02:19;12.00;60.10
9544;DHT22;30418;51.45933468;7.33152330;2022-11-14T16:05:11;12.00;60.20
9544;DHT22;30418;51.45933468;7.33152330;2022-11-14T16:07:59;12.00;60.20